Time,TemperatureF,DewpointF,PressureIn,WindDirection,WindDirectionDegrees,WindSpeedMPH,WindSpeedGustMPH,Humidity,HourlyPrecipIn,Conditions,Clouds,dailyrainin,SoftwareType,DateUTC
2013-04-23 00:01:00,23.0,6.2,30.42,WSW,250,0.0,0.0,48,0.00,,---,0.00,VWS V14.01,2013-04-23 06:01:00,
2013-04-23 00:06:00,23.2,6.9,30.42,WSW,252,0.0,0.0,49,0.00,,---,0.00,VWS V14.01,2013-04-23 06:06:00,
2013-04-23 00:11:00,23.2,6.9,30.42,WSW,252,0.0,0.0,49,0.00,,---,0.00,VWS V14.01,2013-04-23 06:11:00,
2013-04-23 00:16:00,23.2,6.9,30.42,WSW,243,0.0,0.0,49,0.00,,---,0.00,VWS V14.01,2013-04-23 06:16:00,
2013-04-23 00:21:00,23.0,6.7,30.42,SSW,193,2.7,3.6,49,0.00,,---,0.00,VWS V14.01,2013-04-23 06:21:00,
2013-04-23 00:26:00,22.8,6.5,30.42,SSW,193,0.0,3.6,49,0.00,,---,0.00,VWS V14.01,2013-04-23 06:26:00,
2013-04-23 00:31:00,22.5,6.2,30.42,SSW,193,0.0,0.0,49,0.00,,---,0.00,VWS V14.01,2013-04-23 06:31:00,
2013-04-23 00:36:00,22.5,6.2,30.42,SW,215,0.0,0.0,49,0.00,,---,0.00,VWS V14.01,2013-04-23 06:36:00,
2013-04-23 00:41:00,22.3,6.0,30.42,SW,215,0.0,0.0,49,0.00,,---,0.00,VWS V14.01,2013-04-23 06:41:00,
2013-04-23 00:46:00,21.9,5.7,30.42,SW,214,0.0,0.0,49,0.00,,---,0.00,VWS V14.01,2013-04-23 06:46:00,
2013-04-23 00:51:00,21.9,5.7,30.42,SW,215,0.0,0.0,49,0.00,,---,0.00,VWS V14.01,2013-04-23 06:51:00,
2013-04-23 00:56:00,21.6,5.4,30.42,SW,215,0.0,0.0,49,0.00,,---,0.00,VWS V14.01,2013-04-23 06:56:00,
2013-04-23 01:01:00,21.2,5.0,30.42,SW,214,0.0,0.0,49,0.00,,---,0.00,VWS V14.01,2013-04-23 07:01:00,
2013-04-23 01:06:00,21.2,5.0,30.42,SW,215,0.0,0.0,49,0.00,,---,0.00,VWS V14.01,2013-04-23 07:06:00,
2013-04-23 01:11:00,21.2,5.0,30.42,SW,218,0.0,0.0,49,0.00,,---,0.00,VWS V14.01,2013-04-23 07:11:00,
2013-04-23 01:16:00,21.2,5.9,30.42,SW,218,0.0,0.0,51,0.00,,---,0.00,VWS V14.01,2013-04-23 07:16:00,
2013-04-23 01:21:00,21.2,6.8,30.42,SW,224,0.0,0.0,53,0.00,,---,0.00,VWS V14.01,2013-04-23 07:21:00,
2013-04-23 01:26:00,21.2,6.8,30.42,SW,224,0.0,0.0,53,0.00,,---,0.00,VWS V14.01,2013-04-23 07:26:00,
2013-04-23 01:31:00,21.2,6.8,30.42,SW,224,0.0,0.0,53,0.00,,---,0.00,VWS V14.01,2013-04-23 07:31:00,
2013-04-23 01:36:00,21.2,6.8,30.42,SW,224,0.0,0.0,53,0.00,,---,0.00,VWS V14.01,2013-04-23 07:36:00,
2013-04-23 01:41:00,21.2,7.2,30.42,SW,224,0.0,0.0,54,0.00,,---,0.00,VWS V14.01,2013-04-23 07:41:00,
2013-04-23 01:46:00,21.0,7.0,30.42,SW,224,0.0,0.0,54,0.00,,---,0.00,VWS V14.01,2013-04-23 07:46:00,
2013-04-23 01:51:00,20.7,6.2,30.42,SW,224,0.0,0.0,53,0.00,,---,0.00,VWS V14.01,2013-04-23 07:51:00,
2013-04-23 01:56:00,20.3,5.9,30.42,SW,227,0.0,0.0,53,0.00,,---,0.00,VWS V14.01,2013-04-23 07:56:00,
2013-04-23 02:01:00,20.3,5.9,30.39,SW,227,0.0,0.0,53,0.00,,---,0.00,VWS V14.01,2013-04-23 08:01:00,
2013-04-23 02:06:00,20.3,5.9,30.39,SW,236,0.0,0.0,53,0.00,,---,0.00,VWS V14.01,2013-04-23 08:06:00,
2013-04-23 02:11:00,20.3,5.9,30.39,SW,236,0.0,0.0,53,0.00,,---,0.00,VWS V14.01,2013-04-23 08:11:00,
2013-04-23 02:16:00,20.3,5.9,30.39,SW,236,0.0,0.0,53,0.00,,---,0.00,VWS V14.01,2013-04-23 08:16:00,
2013-04-23 02:21:00,20.5,6.1,30.39,South,183,0.0,0.0,53,0.00,,---,0.00,VWS V14.01,2013-04-23 08:21:00,
2013-04-23 02:26:00,21.4,6.9,30.39,SE,137,2.7,3.1,53,0.00,,---,0.00,VWS V14.01,2013-04-23 08:26:00,
2013-04-23 02:31:00,21.6,7.1,30.39,SE,137,0.0,0.0,53,0.00,,---,0.00,VWS V14.01,2013-04-23 08:31:00,
2013-04-23 02:36:00,21.6,7.5,30.39,SE,137,0.0,0.0,54,0.00,,---,0.00,VWS V14.01,2013-04-23 08:36:00,
2013-04-23 02:41:00,21.7,7.7,30.39,SE,138,0.0,0.0,54,0.00,,---,0.00,VWS V14.01,2013-04-23 08:41:00,
2013-04-23 02:46:00,21.9,7.8,30.39,SSE,152,3.1,4.0,54,0.00,,---,0.00,VWS V14.01,2013-04-23 08:46:00,
2013-04-23 02:51:00,22.5,8.8,30.39,South,188,3.6,4.0,55,0.00,,---,0.00,VWS V14.01,2013-04-23 08:51:00,
2013-04-23 02:56:00,23.2,9.4,30.36,South,184,3.6,5.8,55,0.00,,---,0.00,VWS V14.01,2013-04-23 08:56:00,
2013-04-23 03:01:00,23.4,9.6,30.36,SSW,193,3.6,5.8,55,0.00,,---,0.00,VWS V14.01,2013-04-23 09:01:00,
2013-04-23 03:06:00,23.4,10.0,30.36,WSW,256,2.7,5.8,56,0.00,,---,0.00,VWS V14.01,2013-04-23 09:06:00,
2013-04-23 03:11:00,22.8,9.1,30.36,South,184,5.4,5.8,55,0.00,,---,0.00,VWS V14.01,2013-04-23 09:11:00,
2013-04-23 03:16:00,23.4,10.0,30.39,South,176,4.9,5.4,56,0.00,,---,0.00,VWS V14.01,2013-04-23 09:16:00,
2013-04-23 03:21:00,23.5,10.2,30.39,South,183,3.6,7.6,56,0.00,,---,0.00,VWS V14.01,2013-04-23 09:21:00,
2013-04-23 03:26:00,23.5,10.2,30.39,SSW,200,5.4,7.6,56,0.00,,---,0.00,VWS V14.01,2013-04-23 09:26:00,
2013-04-23 03:31:00,23.5,10.2,30.39,SSW,196,4.0,5.4,56,0.00,,---,0.00,VWS V14.01,2013-04-23 09:31:00,
2013-04-23 03:36:00,23.5,10.2,30.39,SSW,195,4.0,6.3,56,0.00,,---,0.00,VWS V14.01,2013-04-23 09:36:00,
2013-04-23 03:42:00,23.4,9.6,30.36,South,191,4.9,6.3,55,0.00,,---,0.00,VWS V14.01,2013-04-23 09:42:00,
2013-04-23 03:47:00,23.2,9.4,30.36,South,182,3.1,4.0,55,0.00,,---,0.00,VWS V14.01,2013-04-23 09:47:00,
2013-04-23 03:52:00,23.0,9.7,30.36,SSW,197,4.0,5.4,56,0.00,,---,0.00,VWS V14.01,2013-04-23 09:52:00,
2013-04-23 03:57:00,23.2,9.8,30.36,South,188,5.4,5.8,56,0.00,,---,0.00,VWS V14.01,2013-04-23 09:57:00,
2013-04-23 04:02:00,23.2,9.4,30.36,South,182,6.3,6.3,55,0.00,,---,0.00,VWS V14.01,2013-04-23 10:02:00,
2013-04-23 04:07:00,23.0,9.7,30.36,SSW,197,3.6,6.3,56,0.00,,---,0.00,VWS V14.01,2013-04-23 10:07:00,
2013-04-23 04:12:00,23.0,9.7,30.36,SSW,206,3.6,6.3,56,0.00,,---,0.00,VWS V14.01,2013-04-23 10:12:00,
2013-04-23 04:17:00,22.8,9.5,30.36,SSW,193,4.0,4.9,56,0.00,,---,0.00,VWS V14.01,2013-04-23 10:17:00,
2013-04-23 04:22:00,22.6,9.3,30.36,South,190,3.6,4.9,56,0.00,,---,0.00,VWS V14.01,2013-04-23 10:22:00,
2013-04-23 04:27:00,22.8,9.5,30.36,SW,225,3.1,5.4,56,0.00,,---,0.00,VWS V14.01,2013-04-23 10:27:00,
2013-04-23 04:32:00,22.6,9.3,30.36,SSW,202,3.1,3.6,56,0.00,,---,0.00,VWS V14.01,2013-04-23 10:32:00,
2013-04-23 04:37:00,22.3,8.6,30.36,South,189,0.0,4.0,55,0.00,,---,0.00,VWS V14.01,2013-04-23 10:37:00,
2013-04-23 04:42:00,21.7,8.1,30.36,SSW,209,0.0,4.0,55,0.00,,---,0.00,VWS V14.01,2013-04-23 10:42:00,
2013-04-23 04:47:00,20.8,7.2,30.36,SW,218,0.0,0.0,55,0.00,,---,0.00,VWS V14.01,2013-04-23 10:47:00,
2013-04-23 04:52:00,20.3,6.7,30.36,SW,224,0.0,0.0,55,0.00,,---,0.00,VWS V14.01,2013-04-23 10:52:00,
2013-04-23 04:57:00,19.9,6.4,30.36,SW,231,0.0,0.0,55,0.00,,---,0.00,VWS V14.01,2013-04-23 10:57:00,
2013-04-23 05:02:00,19.9,6.8,30.36,WSW,252,0.0,3.1,56,0.00,,---,0.00,VWS V14.01,2013-04-23 11:02:00,
2013-04-23 05:07:00,19.9,6.8,30.36,WSW,252,0.0,3.1,56,0.00,,---,0.00,VWS V14.01,2013-04-23 11:07:00,
2013-04-23 05:12:00,20.1,7.3,30.36,West,265,3.1,3.1,57,0.00,,---,0.00,VWS V14.01,2013-04-23 11:12:00,
2013-04-23 05:17:00,19.8,7.0,30.36,West,265,0.0,0.0,57,0.00,,---,0.00,VWS V14.01,2013-04-23 11:17:00,
2013-04-23 05:22:00,19.6,6.8,30.36,WSW,253,0.0,0.0,57,0.00,,---,0.00,VWS V14.01,2013-04-23 11:22:00,
2013-04-23 05:27:00,19.2,6.5,30.36,West,261,0.0,0.0,57,0.00,,---,0.00,VWS V14.01,2013-04-23 11:27:00,
2013-04-23 05:32:00,19.2,6.5,30.36,WSW,243,0.0,0.0,57,0.00,,---,0.00,VWS V14.01,2013-04-23 11:32:00,
2013-04-23 05:37:00,19.2,6.5,30.36,SSW,199,0.0,0.0,57,0.00,,---,0.00,VWS V14.01,2013-04-23 11:37:00,
2013-04-23 05:42:00,20.1,7.7,30.36,SE,137,4.0,4.9,58,0.00,,---,0.00,VWS V14.01,2013-04-23 11:42:00,
2013-04-23 05:47:00,20.8,8.4,30.36,SSW,207,3.1,4.0,58,0.00,,---,0.00,VWS V14.01,2013-04-23 11:47:00,
2013-04-23 05:52:00,21.0,8.6,30.36,SSW,196,4.0,4.0,58,0.00,,---,0.00,VWS V14.01,2013-04-23 11:52:00,
2013-04-23 05:57:00,21.9,9.4,30.36,SE,139,0.0,6.3,58,0.00,,---,0.00,VWS V14.01,2013-04-23 11:57:00,
2013-04-23 06:02:00,22.3,9.8,30.36,SW,214,3.1,4.5,58,0.00,,---,0.00,VWS V14.01,2013-04-23 12:02:00,
2013-04-23 06:07:00,22.1,9.2,30.36,SW,227,3.1,4.5,57,0.00,,---,0.00,VWS V14.01,2013-04-23 12:07:00,
2013-04-23 06:12:00,21.6,8.3,30.36,SW,227,0.0,4.5,56,0.00,,---,0.00,VWS V14.01,2013-04-23 12:12:00,
2013-04-23 06:17:00,21.2,8.4,30.36,SSW,207,2.7,3.6,57,0.00,,---,0.00,VWS V14.01,2013-04-23 12:17:00,
2013-04-23 06:22:00,20.8,7.6,30.36,SSW,196,3.6,4.0,56,0.00,,---,0.00,VWS V14.01,2013-04-23 12:22:00,
2013-04-23 06:27:00,20.8,8.0,30.36,WSW,245,3.1,4.0,57,0.00,,---,0.00,VWS V14.01,2013-04-23 12:27:00,
2013-04-23 06:32:00,20.3,7.1,30.36,WSW,249,0.0,2.7,56,0.00,,---,0.00,VWS V14.01,2013-04-23 12:32:00,
2013-04-23 06:37:00,20.1,6.9,30.36,SSW,200,2.7,3.6,56,0.00,,---,0.00,VWS V14.01,2013-04-23 12:37:00,
2013-04-23 06:42:00,20.5,7.7,30.36,WSW,248,2.7,4.5,57,0.00,,---,0.00,VWS V14.01,2013-04-23 12:42:00,
2013-04-23 06:47:00,20.5,7.3,30.36,West,261,0.0,3.1,56,0.00,,---,0.00,VWS V14.01,2013-04-23 12:47:00,
2013-04-23 06:52:00,20.3,7.1,30.36,SW,222,3.1,4.5,56,0.00,,---,0.00,VWS V14.01,2013-04-23 12:52:00,
2013-04-23 06:57:00,20.3,7.1,30.36,SW,228,3.1,4.5,56,0.00,,---,0.00,VWS V14.01,2013-04-23 12:57:00,
2013-04-23 07:02:00,20.8,8.0,30.36,WSW,253,2.7,4.0,57,0.00,,---,0.00,VWS V14.01,2013-04-23 13:02:00,
2013-04-23 07:07:00,21.9,9.0,30.36,SSW,200,3.1,4.0,57,0.00,,---,0.00,VWS V14.01,2013-04-23 13:07:00,
2013-04-23 07:12:00,23.4,10.4,30.36,SSW,207,3.6,5.4,57,0.00,,---,0.00,VWS V14.01,2013-04-23 13:12:00,
2013-04-23 07:17:00,24.4,11.0,30.36,SSE,168,5.4,6.3,56,0.00,,---,0.00,VWS V14.01,2013-04-23 13:17:00,
2013-04-23 07:22:00,25.0,10.7,30.36,South,180,3.6,6.3,54,0.00,,---,0.00,VWS V14.01,2013-04-23 13:22:00,
2013-04-23 07:27:00,25.3,11.0,30.36,SSW,211,2.7,6.3,54,0.00,,---,0.00,VWS V14.01,2013-04-23 13:27:00,
2013-04-23 07:32:00,25.3,11.0,30.36,SSW,206,0.0,3.1,54,0.00,,---,0.00,VWS V14.01,2013-04-23 13:32:00,
2013-04-23 07:37:00,25.9,11.5,30.36,South,180,0.0,3.1,54,0.00,,---,0.00,VWS V14.01,2013-04-23 13:37:00,
2013-04-23 07:42:00,27.1,12.7,30.36,SSE,166,4.0,4.5,54,0.00,,---,0.00,VWS V14.01,2013-04-23 13:42:00,
2013-04-23 07:47:00,28.0,13.1,30.36,South,177,4.9,4.9,53,0.00,,---,0.00,VWS V14.01,2013-04-23 13:47:00,
2013-04-23 07:52:00,29.1,13.7,30.36,SSE,160,5.8,5.8,52,0.00,,---,0.00,VWS V14.01,2013-04-23 13:52:00,
2013-04-23 07:57:00,29.8,14.4,30.36,ESE,113,2.7,5.8,52,0.00,,---,0.00,VWS V14.01,2013-04-23 13:57:00,
2013-04-23 08:02:00,30.2,13.4,30.36,SSE,159,4.0,5.8,49,0.00,,---,0.00,VWS V14.01,2013-04-23 14:02:00,
2013-04-23 08:07:00,30.2,12.9,30.36,South,177,5.4,6.3,48,0.00,,---,0.00,VWS V14.01,2013-04-23 14:07:00,
2013-04-23 08:12:00,30.4,12.1,30.36,ESE,117,5.8,6.3,46,0.00,,---,0.00,VWS V14.01,2013-04-23 14:12:00,
2013-04-23 08:17:00,30.4,11.6,30.36,SSE,149,5.4,5.8,45,0.00,,---,0.00,VWS V14.01,2013-04-23 14:17:00,
2013-04-23 08:22:00,30.7,11.4,30.36,SE,144,4.0,8.1,44,0.00,,---,0.00,VWS V14.01,2013-04-23 14:22:00,
2013-04-23 08:27:00,31.5,11.6,30.36,ESE,115,4.0,8.1,43,0.00,,---,0.00,VWS V14.01,2013-04-23 14:27:00,
2013-04-23 08:32:00,32.4,12.4,30.36,SSE,168,7.2,7.2,43,0.00,,---,0.00,VWS V14.01,2013-04-23 14:32:00,
2013-04-23 08:37:00,33.3,13.2,30.36,SSE,157,4.9,7.2,43,0.00,,---,0.00,VWS V14.01,2013-04-23 14:37:00,
2013-04-23 08:42:00,34.0,13.3,30.36,SE,127,4.0,7.2,42,0.00,,---,0.00,VWS V14.01,2013-04-23 14:42:00,
2013-04-23 08:47:00,34.9,14.1,30.36,SE,130,4.9,7.6,42,0.00,,---,0.00,VWS V14.01,2013-04-23 14:47:00,
2013-04-23 08:52:00,35.6,14.2,30.36,SSE,149,4.0,7.6,41,0.00,,---,0.00,VWS V14.01,2013-04-23 14:52:00,
2013-04-23 08:57:00,36.1,14.2,30.36,SE,136,3.6,7.6,40,0.00,,---,0.00,VWS V14.01,2013-04-23 14:57:00,
2013-04-23 09:02:00,36.5,14.5,30.36,SSE,153,5.4,7.2,40,0.00,,---,0.00,VWS V14.01,2013-04-23 15:02:00,
2013-04-23 09:07:00,37.0,14.4,30.36,SE,139,5.4,7.2,39,0.00,,---,0.00,VWS V14.01,2013-04-23 15:07:00,
2013-04-23 09:12:00,37.4,14.7,30.33,SE,130,3.6,7.2,39,0.00,,---,0.00,VWS V14.01,2013-04-23 15:12:00,
2013-04-23 09:17:00,37.0,13.2,30.33,SE,143,2.7,5.8,37,0.00,,---,0.00,VWS V14.01,2013-04-23 15:17:00,
2013-04-23 09:22:00,36.7,12.9,30.33,ESE,113,5.4,5.8,37,0.00,,---,0.00,VWS V14.01,2013-04-23 15:22:00,
2013-04-23 09:27:00,37.0,13.2,30.33,ESE,102,4.0,5.8,37,0.00,,---,0.00,VWS V14.01,2013-04-23 15:27:00,
2013-04-23 09:32:00,37.4,12.9,30.33,SE,133,2.7,4.9,36,0.00,,---,0.00,VWS V14.01,2013-04-23 15:32:00,
2013-04-23 09:37:00,38.3,13.7,30.33,ESE,105,2.7,5.4,36,0.00,,---,0.00,VWS V14.01,2013-04-23 15:37:00,
2013-04-23 09:42:00,39.4,14.0,30.33,ESE,120,2.7,5.8,35,0.00,,---,0.00,VWS V14.01,2013-04-23 15:42:00,
2013-04-23 09:47:00,40.3,14.2,30.33,East,86,4.0,6.3,34,0.00,,---,0.00,VWS V14.01,2013-04-23 15:47:00,
2013-04-23 09:52:00,41.0,14.1,30.33,East,101,3.1,6.3,33,0.00,,---,0.00,VWS V14.01,2013-04-23 15:52:00,
2013-04-23 09:57:00,41.4,13.7,30.33,ESE,123,5.8,6.3,32,0.00,,---,0.00,VWS V14.01,2013-04-23 15:57:00,
2013-04-23 10:02:00,41.5,13.2,30.33,SSE,149,7.6,8.1,31,0.00,,---,0.00,VWS V14.01,2013-04-23 16:02:00,
2013-04-23 10:07:00,41.7,13.3,30.33,SE,146,3.6,8.1,31,0.00,,---,0.00,VWS V14.01,2013-04-23 16:07:00,
2013-04-23 10:12:00,42.4,14.0,30.33,SSE,156,5.4,8.1,31,0.00,,---,0.00,VWS V14.01,2013-04-23 16:12:00,
2013-04-23 10:17:00,43.3,14.0,30.33,South,178,5.8,8.1,30,0.00,,---,0.00,VWS V14.01,2013-04-23 16:17:00,
2013-04-23 10:22:00,44.4,14.2,30.33,ESE,120,3.6,8.1,29,0.00,,---,0.00,VWS V14.01,2013-04-23 16:22:00,
2013-04-23 10:27:00,45.5,15.1,30.30,SE,145,5.8,8.1,29,0.00,,---,0.00,VWS V14.01,2013-04-23 16:27:00,
2013-04-23 10:32:00,45.9,14.6,30.30,SSE,168,6.3,7.6,28,0.00,,---,0.00,VWS V14.01,2013-04-23 16:32:00,
2013-04-23 10:37:00,46.4,15.1,30.30,SSE,156,3.1,8.7,28,0.00,,---,0.00,VWS V14.01,2013-04-23 16:37:00,
2013-04-23 10:42:00,46.6,14.4,30.30,SE,129,5.8,8.7,27,0.00,,---,0.00,VWS V14.01,2013-04-23 16:42:00,
2013-04-23 10:47:00,47.1,14.9,30.30,SE,124,3.6,5.8,27,0.00,,---,0.00,VWS V14.01,2013-04-23 16:47:00,
2013-04-23 10:52:00,47.5,15.2,30.30,SE,143,8.1,8.1,27,0.00,,---,0.00,VWS V14.01,2013-04-23 16:52:00,
2013-04-23 10:57:00,47.5,15.2,30.30,SSW,198,4.9,8.1,27,0.00,,---,0.00,VWS V14.01,2013-04-23 16:57:00,
2013-04-23 11:02:00,48.4,16.0,30.30,SE,135,3.6,4.0,27,0.00,,---,0.00,VWS V14.01,2013-04-23 17:02:00,
2013-04-23 11:07:00,48.2,14.9,30.30,ESE,119,4.0,6.7,26,0.00,,---,0.00,VWS V14.01,2013-04-23 17:07:00,
2013-04-23 11:12:00,48.4,15.1,30.30,SE,136,2.7,6.7,26,0.00,,---,0.00,VWS V14.01,2013-04-23 17:12:00,
2013-04-23 11:17:00,48.0,13.0,30.30,NW,316,2.2,4.0,24,0.00,,---,0.00,VWS V14.01,2013-04-23 17:17:00,
2013-04-23 11:22:00,48.0,13.0,30.30,South,188,3.1,5.4,24,0.00,,---,0.00,VWS V14.01,2013-04-23 17:22:00,
2013-04-23 11:27:00,48.6,15.2,30.30,SSE,162,2.7,5.8,26,0.00,,---,0.00,VWS V14.01,2013-04-23 17:27:00,
2013-04-23 11:32:00,49.3,15.9,30.30,South,172,3.1,4.9,26,0.00,,---,0.00,VWS V14.01,2013-04-23 17:32:00,
2013-04-23 11:37:00,49.6,14.3,30.30,South,173,2.2,5.4,24,0.00,,---,0.00,VWS V14.01,2013-04-23 17:37:00,
2013-04-23 11:42:00,49.8,14.5,30.30,SSE,164,4.0,5.4,24,0.00,,---,0.00,VWS V14.01,2013-04-23 17:42:00,
2013-04-23 11:47:00,50.0,14.6,30.30,ESE,106,5.4,5.4,24,0.00,,---,0.00,VWS V14.01,2013-04-23 17:47:00,
2013-04-23 11:52:00,50.7,15.3,30.30,ESE,104,4.0,5.4,24,0.00,,---,0.00,VWS V14.01,2013-04-23 17:52:00,
2013-04-23 11:57:00,51.1,15.6,30.30,East,100,5.8,6.3,24,0.00,,---,0.00,VWS V14.01,2013-04-23 17:57:00,
2013-04-23 12:02:00,50.9,15.4,30.30,ENE,67,3.6,6.3,24,0.00,,---,0.00,VWS V14.01,2013-04-23 18:02:00,
2013-04-23 12:07:00,50.9,15.4,30.30,SSE,150,3.6,6.3,24,0.00,,---,0.00,VWS V14.01,2013-04-23 18:07:00,
2013-04-23 12:12:00,51.3,15.7,30.30,East,100,2.7,6.3,24,0.00,,---,0.00,VWS V14.01,2013-04-23 18:12:00,
2013-04-23 12:17:00,52.0,13.3,30.30,North,0,2.7,4.0,21,0.00,,---,0.00,VWS V14.01,2013-04-23 18:17:00,
2013-04-23 12:22:00,52.2,13.4,30.30,SE,143,3.6,6.3,21,0.00,,---,0.00,VWS V14.01,2013-04-23 18:22:00,
2013-04-23 12:27:00,51.8,13.1,30.30,SE,140,3.1,6.3,21,0.00,,---,0.00,VWS V14.01,2013-04-23 18:27:00,
2013-04-23 12:32:00,51.3,12.7,30.30,SE,130,5.8,5.8,21,0.00,,---,0.00,VWS V14.01,2013-04-23 18:32:00,
2013-04-23 12:37:00,50.9,12.4,30.30,SE,146,4.9,5.8,21,0.00,,---,0.00,VWS V14.01,2013-04-23 18:37:00,
2013-04-23 12:42:00,50.9,12.4,30.30,SSW,193,5.4,5.8,21,0.00,,---,0.00,VWS V14.01,2013-04-23 18:42:00,
2013-04-23 12:47:00,50.9,12.4,30.30,SSW,198,5.4,7.6,21,0.00,,---,0.00,VWS V14.01,2013-04-23 18:47:00,
2013-04-23 12:52:00,51.1,12.5,30.30,WSW,245,3.1,7.6,21,0.00,,---,0.00,VWS V14.01,2013-04-23 18:52:00,
2013-04-23 12:57:00,50.7,12.2,30.30,North,0,3.1,7.6,21,0.00,,---,0.00,VWS V14.01,2013-04-23 18:57:00,
2013-04-23 13:02:00,51.3,12.7,30.30,SSW,198,2.7,6.3,21,0.00,,---,0.00,VWS V14.01,2013-04-23 19:02:00,
2013-04-23 13:07:00,51.6,13.0,30.30,South,182,0.0,6.3,21,0.00,,---,0.00,VWS V14.01,2013-04-23 19:07:00,
2013-04-23 13:12:00,52.0,13.3,30.30,WNW,291,0.0,6.3,21,0.00,,---,0.00,VWS V14.01,2013-04-23 19:12:00,
2013-04-23 13:17:00,52.2,13.4,30.30,WSW,243,2.7,7.6,21,0.00,,---,0.00,VWS V14.01,2013-04-23 19:17:00,
2013-04-23 13:22:00,52.2,13.4,30.30,South,189,4.0,7.6,21,0.00,,---,0.00,VWS V14.01,2013-04-23 19:22:00,
2013-04-23 13:27:00,52.2,13.4,30.27,NNW,345,0.0,7.6,21,0.00,,---,0.00,VWS V14.01,2013-04-23 19:27:00,
2013-04-23 13:33:00,52.0,13.3,30.27,West,275,3.1,3.1,21,0.00,,---,0.00,VWS V14.01,2013-04-23 19:33:00,
2013-04-23 13:38:00,51.1,12.5,30.27,North,0,2.7,3.6,21,0.00,,---,0.00,VWS V14.01,2013-04-23 19:38:00,
2013-04-23 13:43:00,50.4,11.9,30.27,East,99,0.0,3.6,21,0.00,,---,0.00,VWS V14.01,2013-04-23 19:43:00,
2013-04-23 13:48:00,50.0,11.6,30.27,WNW,298,3.1,8.1,21,0.00,,---,0.00,VWS V14.01,2013-04-23 19:48:00,
2013-04-23 13:53:00,49.6,11.3,30.27,SW,219,3.6,8.1,21,0.00,,---,0.00,VWS V14.01,2013-04-23 19:53:00,
2013-04-23 13:58:00,49.8,11.5,30.27,North,10,3.6,8.1,21,0.00,,---,0.00,VWS V14.01,2013-04-23 19:58:00,
2013-04-23 14:03:00,50.2,11.8,30.27,East,90,2.2,2.2,21,0.00,,---,0.00,VWS V14.01,2013-04-23 20:03:00,
2013-04-23 14:08:00,51.8,13.1,30.27,West,265,0.0,3.1,21,0.00,,---,0.00,VWS V14.01,2013-04-23 20:08:00,
2013-04-23 14:13:00,53.6,13.5,30.27,NE,52,2.7,6.3,20,0.00,,---,0.00,VWS V14.01,2013-04-23 20:13:00,
2013-04-23 14:18:00,54.7,14.4,30.27,SE,139,3.6,3.6,20,0.00,,---,0.00,VWS V14.01,2013-04-23 20:18:00,
2013-04-23 14:23:00,55.0,14.7,30.27,West,262,0.0,4.9,20,0.00,,---,0.00,VWS V14.01,2013-04-23 20:23:00,
2013-04-23 14:28:00,54.7,14.4,30.24,SE,128,3.1,4.9,20,0.00,,---,0.00,VWS V14.01,2013-04-23 20:28:00,
2013-04-23 14:33:00,54.0,13.8,30.24,ENE,66,5.4,5.8,20,0.00,,---,0.00,VWS V14.01,2013-04-23 20:33:00,
2013-04-23 14:38:00,54.3,14.1,30.24,ENE,75,3.1,5.8,20,0.00,,---,0.00,VWS V14.01,2013-04-23 20:38:00,
2013-04-23 14:43:00,54.5,14.3,30.27,ENE,66,4.0,5.8,20,0.00,,---,0.00,VWS V14.01,2013-04-23 20:43:00,
2013-04-23 14:48:00,54.3,14.1,30.27,South,176,5.8,6.3,20,0.00,,---,0.00,VWS V14.01,2013-04-23 20:48:00,
2013-04-23 14:53:00,53.8,13.7,30.27,WSW,251,2.7,6.3,20,0.00,,---,0.00,VWS V14.01,2013-04-23 20:53:00,
2013-04-23 14:58:00,53.8,13.7,30.27,ENE,70,3.6,6.3,20,0.00,,---,0.00,VWS V14.01,2013-04-23 20:58:00,
2013-04-23 15:03:00,53.1,14.2,30.27,ENE,61,3.1,4.0,21,0.00,,---,0.00,VWS V14.01,2013-04-23 21:03:00,
2013-04-23 15:08:00,53.1,14.2,30.27,NE,52,4.0,6.3,21,0.00,,---,0.00,VWS V14.01,2013-04-23 21:08:00,
2013-04-23 15:13:00,52.7,13.9,30.27,ESE,106,4.9,6.3,21,0.00,,---,0.00,VWS V14.01,2013-04-23 21:13:00,
2013-04-23 15:18:00,52.3,10.1,30.27,SSE,148,3.6,3.6,18,0.00,,---,0.00,VWS V14.01,2013-04-23 21:18:00,
2013-04-23 15:23:00,52.3,13.6,30.27,ESE,112,0.0,4.0,21,0.00,,---,0.00,VWS V14.01,2013-04-23 21:23:00,
2013-04-23 15:28:00,53.4,14.5,30.27,East,85,2.7,4.0,21,0.00,,---,0.00,VWS V14.01,2013-04-23 21:28:00,
2013-04-23 15:33:00,54.0,13.8,30.27,NE,41,3.1,6.3,20,0.00,,---,0.00,VWS V14.01,2013-04-23 21:33:00,
2013-04-23 15:38:00,53.2,14.3,30.27,NE,54,2.2,6.3,21,0.00,,---,0.00,VWS V14.01,2013-04-23 21:38:00,
2013-04-23 15:43:00,52.2,10.0,30.27,NE,56,0.0,6.3,18,0.00,,---,0.00,VWS V14.01,2013-04-23 21:43:00,
2013-04-23 15:48:00,52.2,13.4,30.27,NNE,16,3.6,5.8,21,0.00,,---,0.00,VWS V14.01,2013-04-23 21:48:00,
2013-04-23 15:53:00,52.3,10.1,30.27,East,91,4.0,5.8,18,0.00,,---,0.00,VWS V14.01,2013-04-23 21:53:00,
2013-04-23 15:58:00,52.2,10.0,30.27,NNE,33,2.2,5.8,18,0.00,,---,0.00,VWS V14.01,2013-04-23 21:58:00,
2013-04-23 16:03:00,52.0,9.8,30.27,NNE,13,8.3,8.3,18,0.00,,---,0.00,VWS V14.01,2013-04-23 22:03:00,
2013-04-23 16:08:00,52.0,9.8,30.27,NW,322,3.1,8.3,18,0.00,,---,0.00,VWS V14.01,2013-04-23 22:08:00,
2013-04-23 16:13:00,49.6,9.1,30.27,NW,311,2.2,8.3,19,0.00,,---,0.00,VWS V14.01,2013-04-23 22:13:00,
2013-04-23 16:18:00,50.0,9.4,30.27,NW,314,2.2,3.6,19,0.00,,---,0.00,VWS V14.01,2013-04-23 22:18:00,
2013-04-23 16:23:00,50.7,12.2,30.27,North,6,0.0,4.0,21,0.00,,---,0.00,VWS V14.01,2013-04-23 22:23:00,
2013-04-23 16:28:00,50.9,10.1,30.24,NE,35,8.1,8.1,19,0.00,,---,0.00,VWS V14.01,2013-04-23 22:28:00,
2013-04-23 16:33:00,50.7,12.2,30.24,ENE,66,5.8,5.8,21,0.00,,---,0.00,VWS V14.01,2013-04-23 22:33:00,
2013-04-23 16:38:00,50.2,9.5,30.24,North,2,2.7,6.3,19,0.00,,---,0.00,VWS V14.01,2013-04-23 22:38:00,
2013-04-23 16:43:00,49.5,8.9,30.24,North,357,2.2,6.3,19,0.00,,---,0.00,VWS V14.01,2013-04-23 22:43:00,
2013-04-23 16:48:00,49.6,11.3,30.24,ENE,64,0.0,3.1,21,0.00,,---,0.00,VWS V14.01,2013-04-23 22:48:00,
2013-04-23 16:53:00,50.0,11.6,30.24,NE,55,0.0,4.0,21,0.00,,---,0.00,VWS V14.01,2013-04-23 22:53:00,
2013-04-23 16:58:00,50.4,11.9,30.24,ESE,107,3.1,4.0,21,0.00,,---,0.00,VWS V14.01,2013-04-23 22:58:00,
2013-04-23 17:03:00,50.7,12.2,30.24,SE,144,3.6,3.6,21,0.00,,---,0.00,VWS V14.01,2013-04-23 23:03:00,
2013-04-23 17:08:00,50.9,12.4,30.24,ESE,104,2.7,4.0,21,0.00,,---,0.00,VWS V14.01,2013-04-23 23:08:00,
2013-04-23 17:13:00,50.9,12.4,30.24,ENE,73,2.7,4.0,21,0.00,,---,0.00,VWS V14.01,2013-04-23 23:13:00,
2013-04-23 17:18:00,51.4,12.8,30.24,East,86,3.6,5.4,21,0.00,,---,0.00,VWS V14.01,2013-04-23 23:18:00,
2013-04-23 17:23:00,54.0,13.8,30.24,SE,131,2.7,5.4,20,0.00,,---,0.00,VWS V14.01,2013-04-23 23:23:00,
2013-04-23 17:28:00,55.4,15.0,30.24,SE,125,5.4,7.6,20,0.00,,---,0.00,VWS V14.01,2013-04-23 23:28:00,
2013-04-23 17:33:00,56.3,15.8,30.24,East,100,5.4,5.4,20,0.00,,---,0.00,VWS V14.01,2013-04-23 23:33:00,
2013-04-23 17:38:00,56.5,15.9,30.24,ESE,123,5.4,6.3,20,0.00,,---,0.00,VWS V14.01,2013-04-23 23:38:00,
2013-04-23 17:43:00,55.6,15.2,30.24,ESE,111,4.9,6.3,20,0.00,,---,0.00,VWS V14.01,2013-04-23 23:43:00,
2013-04-23 17:48:00,54.0,13.8,30.24,SE,132,3.6,5.8,20,0.00,,---,0.00,VWS V14.01,2013-04-23 23:48:00,
2013-04-23 17:53:00,54.5,14.3,30.24,SE,140,0.0,5.8,20,0.00,,---,0.00,VWS V14.01,2013-04-23 23:53:00,
2013-04-23 17:58:00,54.5,14.3,30.24,East,87,6.3,6.3,20,0.00,,---,0.00,VWS V14.01,2013-04-23 23:58:00,
2013-04-23 18:03:00,55.6,15.2,30.24,East,96,3.1,7.6,20,0.00,,---,0.00,VWS V14.01,2013-04-24 00:03:00,
2013-04-23 18:08:00,56.3,15.8,30.24,East,86,4.0,7.6,20,0.00,,---,0.00,VWS V14.01,2013-04-24 00:08:00,
2013-04-23 18:13:00,55.2,14.9,30.24,South,180,2.7,7.6,20,0.00,,---,0.00,VWS V14.01,2013-04-24 00:13:00,
2013-04-23 18:18:00,53.8,11.3,30.24,SE,130,0.0,3.6,18,0.00,,---,0.00,VWS V14.01,2013-04-24 00:18:00,
2013-04-23 18:23:00,53.6,13.5,30.24,NNE,18,4.0,4.0,20,0.00,,---,0.00,VWS V14.01,2013-04-24 00:23:00,
2013-04-23 18:28:00,53.1,14.2,30.24,ENE,77,3.6,6.3,21,0.00,,---,0.00,VWS V14.01,2013-04-24 00:28:00,
2013-04-23 18:33:00,52.0,13.3,30.24,NE,51,2.7,4.0,21,0.00,,---,0.00,VWS V14.01,2013-04-24 00:33:00,
2013-04-23 18:38:00,51.3,12.7,30.24,NNE,17,3.1,4.0,21,0.00,,---,0.00,VWS V14.01,2013-04-24 00:38:00,
2013-04-23 18:43:00,51.1,12.5,30.24,East,94,0.0,5.8,21,0.00,,---,0.00,VWS V14.01,2013-04-24 00:43:00,
2013-04-23 18:48:00,51.1,12.5,30.24,ESE,111,3.6,4.9,21,0.00,,---,0.00,VWS V14.01,2013-04-24 00:48:00,
2013-04-23 18:53:00,50.7,12.2,30.24,East,96,5.8,6.3,21,0.00,,---,0.00,VWS V14.01,2013-04-24 00:53:00,
2013-04-23 18:58:00,50.2,11.8,30.24,East,79,3.6,6.3,21,0.00,,---,0.00,VWS V14.01,2013-04-24 00:58:00,
2013-04-23 19:03:00,49.5,11.2,30.24,NNE,20,3.6,5.4,21,0.00,,---,0.00,VWS V14.01,2013-04-24 01:03:00,
2013-04-23 19:08:00,48.7,10.6,30.24,NNE,12,0.0,5.4,21,0.00,,---,0.00,VWS V14.01,2013-04-24 01:08:00,
2013-04-23 19:13:00,48.4,10.3,30.24,NNE,21,4.0,5.4,21,0.00,,---,0.00,VWS V14.01,2013-04-24 01:13:00,
2013-04-23 19:18:00,49.1,10.9,30.24,East,92,3.6,4.9,21,0.00,,---,0.00,VWS V14.01,2013-04-24 01:18:00,
2013-04-23 19:23:00,50.0,11.6,30.24,North,7,3.1,4.9,21,0.00,,---,0.00,VWS V14.01,2013-04-24 01:23:00,
2013-04-23 19:28:00,49.3,11.0,30.24,NE,46,2.7,4.9,21,0.00,,---,0.00,VWS V14.01,2013-04-24 01:28:00,
2013-04-23 19:33:00,48.2,10.1,30.24,NNE,33,0.0,3.1,21,0.00,,---,0.00,VWS V14.01,2013-04-24 01:33:00,
2013-04-23 19:38:00,46.9,10.1,30.24,North,7,3.1,5.8,22,0.00,,---,0.00,VWS V14.01,2013-04-24 01:38:00,
2013-04-23 19:43:00,46.2,9.5,30.24,NNE,13,4.0,5.8,22,0.00,,---,0.00,VWS V14.01,2013-04-24 01:43:00,
2013-04-23 19:48:00,46.0,9.3,30.24,NNE,25,0.0,2.7,22,0.00,,---,0.00,VWS V14.01,2013-04-24 01:48:00,
2013-04-23 19:53:00,45.3,8.7,30.24,ENE,77,0.0,2.7,22,0.00,,---,0.00,VWS V14.01,2013-04-24 01:53:00,
2013-04-23 19:58:00,44.8,8.3,30.24,North,11,0.0,3.6,22,0.00,,---,0.00,VWS V14.01,2013-04-24 01:58:00,
2013-04-23 20:03:00,44.2,8.8,30.24,North,11,0.0,0.0,23,0.00,,---,0.00,VWS V14.01,2013-04-24 02:03:00,
2013-04-23 20:08:00,44.1,8.6,30.24,North,11,0.0,0.0,23,0.00,,---,0.00,VWS V14.01,2013-04-24 02:08:00,
2013-04-23 20:13:00,43.3,8.0,30.24,North,11,0.0,0.0,23,0.00,,---,0.00,VWS V14.01,2013-04-24 02:13:00,
2013-04-23 20:18:00,43.0,7.7,30.24,North,11,0.0,0.0,23,0.00,,---,0.00,VWS V14.01,2013-04-24 02:18:00,
2013-04-23 20:23:00,42.3,9.8,30.24,North,5,0.0,0.0,26,0.00,,---,0.00,VWS V14.01,2013-04-24 02:23:00,
2013-04-23 20:29:00,42.1,9.7,30.24,NW,316,0.0,3.6,26,0.00,,---,0.00,VWS V14.01,2013-04-24 02:29:00,
2013-04-23 20:34:00,42.1,9.7,30.24,NW,312,2.7,2.7,26,0.00,,---,0.00,VWS V14.01,2013-04-24 02:34:00,
2013-04-23 20:39:00,42.3,9.8,30.24,WNW,288,0.0,4.0,26,0.00,,---,0.00,VWS V14.01,2013-04-24 02:39:00,
2013-04-23 20:44:00,42.1,9.7,30.27,NNW,329,0.0,4.0,26,0.00,,---,0.00,VWS V14.01,2013-04-24 02:44:00,
2013-04-23 20:48:00,42.1,9.7,30.27,WNW,300,0.0,0.0,26,0.00,,---,0.00,VWS V14.01,2013-04-24 02:48:00,
2013-04-23 20:53:00,41.4,9.1,30.27,West,270,3.1,3.1,26,0.00,,---,0.00,VWS V14.01,2013-04-24 02:53:00,
2013-04-23 20:58:00,40.6,10.1,30.27,WNW,297,0.0,3.1,28,0.00,,---,0.00,VWS V14.01,2013-04-24 02:58:00,
2013-04-23 21:03:00,40.6,10.1,30.27,West,273,0.0,0.0,28,0.00,,---,0.00,VWS V14.01,2013-04-24 03:03:00,
2013-04-23 21:08:00,40.6,10.1,30.27,West,277,0.0,0.0,28,0.00,,---,0.00,VWS V14.01,2013-04-24 03:08:00,
2013-04-23 21:13:00,40.6,10.1,30.27,West,278,0.0,0.0,28,0.00,,---,0.00,VWS V14.01,2013-04-24 03:13:00,
2013-04-23 21:19:00,39.4,9.8,30.27,West,274,0.0,0.0,29,0.00,,---,0.00,VWS V14.01,2013-04-24 03:19:00,
2013-04-23 21:24:00,39.4,9.8,30.27,North,0,0.0,0.0,29,0.00,,---,0.00,VWS V14.01,2013-04-24 03:24:00,
2013-04-23 21:29:00,39.4,9.8,30.27,North,353,0.0,0.0,29,0.00,,---,0.00,VWS V14.01,2013-04-24 03:29:00,
2013-04-23 21:34:00,39.0,9.5,30.27,North,353,0.0,0.0,29,0.00,,---,0.00,VWS V14.01,2013-04-24 03:34:00,
2013-04-23 21:39:00,39.2,9.6,30.27,WNW,299,0.0,0.0,29,0.00,,---,0.00,VWS V14.01,2013-04-24 03:39:00,
2013-04-23 21:44:00,38.8,10.1,30.27,WNW,286,0.0,0.0,30,0.00,,---,0.00,VWS V14.01,2013-04-24 03:44:00,
2013-04-23 21:49:00,38.1,9.4,30.27,WNW,287,0.0,0.0,30,0.00,,---,0.00,VWS V14.01,2013-04-24 03:49:00,
2013-04-23 21:54:00,36.9,9.1,30.27,NW,314,0.0,0.0,31,0.00,,---,0.00,VWS V14.01,2013-04-24 03:54:00,
2013-04-23 22:00:00,36.1,9.1,30.30,NW,314,0.0,0.0,32,0.00,,---,0.00,VWS V14.01,2013-04-24 04:00:00,
2013-04-23 22:01:00,36.0,9.0,30.30,NW,314,0.0,0.0,32,0.00,,---,0.00,VWS V14.01,2013-04-24 04:01:00,
2013-04-23 22:06:00,35.6,8.7,30.30,West,265,0.0,0.0,32,0.00,,---,0.00,VWS V14.01,2013-04-24 04:06:00,
2013-04-23 22:11:00,34.9,10.0,30.30,WSW,245,0.0,3.1,35,0.00,,---,0.00,VWS V14.01,2013-04-24 04:11:00,
2013-04-23 22:16:00,34.3,8.9,30.30,WSW,257,3.1,3.1,34,0.00,,---,0.00,VWS V14.01,2013-04-24 04:16:00,
2013-04-23 22:21:00,33.8,9.7,30.30,WNW,283,0.0,4.0,36,0.00,,---,0.00,VWS V14.01,2013-04-24 04:21:00,
2013-04-23 22:26:00,33.4,10.6,30.30,WSW,248,0.0,4.0,38,0.00,,---,0.00,VWS V14.01,2013-04-24 04:26:00,
2013-04-23 22:31:00,33.1,11.4,30.30,WSW,247,0.0,0.0,40,0.00,,---,0.00,VWS V14.01,2013-04-24 04:31:00,
2013-04-23 22:36:00,32.9,11.2,30.30,West,259,0.0,0.0,40,0.00,,---,0.00,VWS V14.01,2013-04-24 04:36:00,
2013-04-23 22:41:00,32.7,11.1,30.30,West,262,0.0,0.0,40,0.00,,---,0.00,VWS V14.01,2013-04-24 04:41:00,
2013-04-23 22:46:00,32.9,11.8,30.30,WNW,294,3.6,4.0,41,0.00,,---,0.00,VWS V14.01,2013-04-24 04:46:00,
2013-04-23 22:51:00,33.4,12.3,30.30,WNW,284,0.0,4.0,41,0.00,,---,0.00,VWS V14.01,2013-04-24 04:51:00,
2013-04-23 22:56:00,33.3,12.1,30.30,WNW,284,0.0,4.0,41,0.00,,---,0.00,VWS V14.01,2013-04-24 04:56:00,
2013-04-23 23:01:00,33.3,12.1,30.30,SW,231,0.0,2.2,41,0.00,,---,0.00,VWS V14.01,2013-04-24 05:01:00,
2013-04-23 23:06:00,32.9,11.8,30.30,SW,231,0.0,2.2,41,0.00,,---,0.00,VWS V14.01,2013-04-24 05:06:00,
2013-04-23 23:11:00,32.7,11.6,30.30,WSW,243,0.0,2.2,41,0.00,,---,0.00,VWS V14.01,2013-04-24 05:11:00,
2013-04-23 23:16:00,32.5,11.5,30.30,SE,143,3.1,3.1,41,0.00,,---,0.00,VWS V14.01,2013-04-24 05:16:00,
2013-04-23 23:21:00,31.8,10.8,30.30,SSE,168,0.0,3.6,41,0.00,,---,0.00,VWS V14.01,2013-04-24 05:21:00,
2013-04-23 23:26:00,31.3,10.3,30.30,SSE,168,0.0,3.6,41,0.00,,---,0.00,VWS V14.01,2013-04-24 05:26:00,
2013-04-23 23:31:00,30.9,10.0,30.30,SSE,168,0.0,0.0,41,0.00,,---,0.00,VWS V14.01,2013-04-24 05:31:00,
2013-04-23 23:36:00,30.4,9.5,30.30,SSE,168,0.0,0.0,41,0.00,,---,0.00,VWS V14.01,2013-04-24 05:36:00,
2013-04-23 23:41:00,30.2,9.4,30.30,SSE,168,0.0,0.0,41,0.00,,---,0.00,VWS V14.01,2013-04-24 05:41:00,
2013-04-23 23:46:00,30.0,9.7,30.30,SSE,168,0.0,0.0,42,0.00,,---,0.00,VWS V14.01,2013-04-24 05:46:00,
2013-04-23 23:51:00,29.7,9.4,30.30,SW,216,0.0,0.0,42,0.00,,---,0.00,VWS V14.01,2013-04-24 05:51:00,
2013-04-23 23:56:00,29.1,8.9,30.30,SW,216,0.0,0.0,42,0.00,,---,0.00,VWS V14.01,2013-04-24 05:56:00,